createdAt,value
2023-04-20T00:00:44.205Z,17.23
2023-04-20T00:03:12.756Z,16.95
2023-04-20T00:05:39.428Z,15.35
2023-04-20T00:08:06.164Z,16.63
2023-04-20T00:10:32.805Z,16.73
2023-04-20T00:12:59.305Z,17.55
2023-04-20T00:15:25.946Z,16.05
2023-04-20T00:17:53.623Z,15.65
2023-04-20T00:20:20.364Z,15.57
2023-04-20T00:22:46.896Z,16.85
2023-04-20T00:25:13.397Z,16.45
2023-04-20T00:27:40.060Z,15.93
2023-04-20T00:30:07.248Z,15.23
2023-04-20T00:32:33.763Z,16.10
2023-04-20T00:35:00.383Z,14.35
2023-04-20T00:37:26.956Z,15.05
2023-04-20T00:39:55.483Z,14.00
2023-04-20T00:42:22.004Z,13.60
2023-04-20T00:44:48.506Z,14.88
2023-04-20T00:47:15.099Z,13.82
2023-04-20T00:49:41.771Z,14.57
2023-04-20T00:52:08.962Z,13.63
2023-04-20T00:54:36.296Z,13.57
2023-04-20T00:57:03.906Z,13.98
2023-04-20T00:59:30.415Z,13.00
2023-04-20T01:01:58.006Z,12.63
2023-04-20T01:04:25.011Z,13.90
2023-04-20T01:06:51.590Z,13.50
2023-04-20T01:09:18.258Z,14.38
2023-04-20T01:11:44.999Z,12.90
2023-04-20T01:16:42.645Z,14.10
2023-04-20T01:19:12.289Z,13.25
2023-04-20T01:21:38.901Z,14.45
2023-04-20T01:24:06.394Z,14.10
2023-04-20T01:26:32.871Z,12.73
2023-04-20T01:28:59.379Z,14.32
2023-04-20T01:31:25.983Z,14.02
2023-04-20T01:33:52.569Z,14.27
2023-04-20T01:36:20.751Z,14.45
2023-04-20T01:38:47.592Z,13.82
2023-04-20T01:41:14.643Z,13.82
2023-04-20T01:43:41.322Z,13.15
2023-04-20T01:46:07.882Z,14.00
2023-04-20T01:48:34.992Z,14.13
2023-04-20T01:51:01.538Z,13.90
2023-04-20T01:53:28.082Z,13.98
2023-04-20T01:55:54.851Z,13.45
2023-04-20T01:58:22.767Z,13.38
2023-04-20T02:00:49.426Z,13.82
2023-04-20T02:03:16.473Z,13.02
2023-04-20T02:05:43.117Z,14.20
2023-04-20T02:08:09.705Z,13.00
2023-04-20T02:10:39.177Z,14.10
2023-04-20T02:13:05.682Z,14.00
2023-04-20T02:15:32.284Z,14.40
2023-04-20T02:17:58.902Z,13.70
2023-04-20T02:20:25.537Z,13.73
2023-04-20T02:22:52.060Z,13.82
2023-04-20T02:25:18.602Z,14.52
2023-04-20T02:27:45.124Z,17.98
2023-04-20T02:30:12.482Z,14.93
2023-04-20T02:32:41.291Z,14.45
2023-04-20T02:35:08.824Z,15.52
2023-04-20T02:37:35.337Z,15.60
2023-04-20T02:40:01.879Z,17.23
2023-04-20T02:42:29.193Z,15.57
2023-04-20T02:44:57.467Z,15.55
2023-04-20T02:47:24.505Z,16.48
2023-04-20T02:49:52.954Z,18.10
2023-04-20T02:52:19.574Z,16.45
2023-04-20T02:54:46.345Z,16.67
2023-04-20T02:57:13.378Z,17.13
2023-04-20T02:59:40.031Z,19.10
2023-04-20T03:02:16.055Z,17.55
2023-04-20T03:04:42.876Z,18.58
2023-04-20T03:07:17.801Z,19.25
2023-04-20T03:09:44.926Z,17.88
2023-04-20T03:12:31.816Z,20.10
2023-04-20T03:15:15.584Z,18.77
2023-04-20T03:17:52.468Z,17.83
2023-04-20T03:20:19.000Z,19.67
2023-04-20T03:22:45.711Z,18.42
2023-04-20T03:25:12.437Z,19.88
2023-04-20T03:27:52.993Z,20.63
2023-04-20T03:30:19.860Z,19.48
2023-04-20T03:32:51.407Z,18.55
2023-04-20T03:35:18.209Z,20.10
2023-04-20T03:37:44.815Z,18.92
2023-04-20T03:40:11.790Z,21.88
2023-04-20T03:42:38.334Z,19.95
2023-04-20T03:45:06.388Z,19.02
2023-04-20T03:47:33.274Z,19.52
2023-04-20T03:49:59.851Z,21.00
2023-04-20T03:52:26.409Z,19.80
2023-04-20T03:54:53.278Z,20.67
2023-04-20T03:57:19.836Z,21.85
2023-04-20T03:59:46.805Z,21.60
2023-04-20T04:02:17.601Z,21.98
2023-04-20T04:04:46.454Z,22.00
2023-04-20T04:07:13.053Z,22.15
2023-04-20T04:09:41.401Z,20.90
2023-04-20T04:12:08.664Z,20.85
2023-04-20T04:14:35.199Z,21.67
2023-04-20T04:17:02.226Z,21.35
2023-04-20T04:19:30.226Z,20.70
2023-04-20T04:21:56.784Z,21.23
2023-04-20T04:24:23.330Z,20.67
2023-04-20T04:26:59.426Z,20.58
2023-04-20T04:29:27.601Z,20.05
2023-04-20T04:34:37.638Z,20.65
2023-04-20T04:37:04.602Z,22.13
2023-04-20T04:39:45.569Z,21.45
2023-04-20T04:42:18.688Z,21.55
2023-04-20T04:44:46.149Z,20.65
2023-04-20T04:47:17.951Z,21.67
2023-04-20T04:49:45.551Z,21.85
2023-04-20T04:52:13.308Z,19.48
2023-04-20T04:54:39.779Z,22.02
2023-04-20T04:57:06.793Z,22.05
2023-04-20T04:59:33.363Z,20.65
2023-04-20T05:01:59.967Z,21.88
2023-04-20T05:04:26.675Z,20.63
2023-04-20T05:06:53.249Z,22.75
2023-04-20T05:09:20.146Z,22.13
2023-04-20T05:11:46.862Z,23.25
2023-04-20T05:14:13.439Z,21.60
2023-04-20T05:16:40.019Z,20.98
2023-04-20T05:19:06.569Z,21.98
2023-04-20T05:21:33.124Z,23.38
2023-04-20T05:23:59.705Z,24.00
2023-04-20T05:26:26.201Z,21.67
2023-04-20T05:28:52.692Z,23.15
2023-04-20T05:31:20.141Z,23.33
2023-04-20T05:33:46.713Z,21.40
2023-04-20T05:36:13.241Z,21.30
2023-04-20T05:38:39.801Z,23.92
2023-04-20T05:41:06.590Z,21.02
2023-04-20T05:43:33.088Z,25.52
2023-04-20T05:45:59.619Z,24.63
2023-04-20T05:48:29.877Z,21.90
2023-04-20T05:50:56.917Z,24.27
2023-04-20T05:53:23.429Z,24.13
2023-04-20T05:55:50.037Z,22.70
2023-04-20T05:58:17.064Z,23.60
2023-04-20T06:00:44.381Z,25.40
2023-04-20T06:03:11.157Z,23.88
2023-04-20T06:05:38.040Z,23.15
2023-04-20T06:08:04.814Z,24.85
2023-04-20T06:10:34.325Z,24.23
2023-04-20T06:13:01.004Z,24.00
2023-04-20T06:15:27.458Z,25.42
2023-04-20T06:17:54.044Z,24.05
2023-04-20T06:20:20.670Z,25.65
2023-04-20T06:22:47.310Z,26.38
2023-04-20T06:25:15.204Z,23.70
2023-04-20T06:27:42.256Z,25.30
2023-04-20T06:30:09.869Z,23.63
2023-04-20T06:32:36.623Z,26.80
2023-04-20T06:35:04.264Z,26.90
2023-04-20T06:37:30.784Z,26.00
2023-04-20T06:39:57.385Z,25.30
2023-04-20T06:42:23.896Z,27.05
2023-04-20T06:44:50.897Z,26.52
2023-04-20T06:47:17.435Z,24.60
2023-04-20T06:49:43.964Z,24.55
2023-04-20T06:52:10.478Z,24.75
2023-04-20T06:54:36.968Z,24.10
2023-04-20T06:57:03.457Z,24.85
2023-04-20T06:59:29.945Z,24.77
2023-04-20T07:01:56.498Z,23.35
2023-04-20T07:04:23.171Z,23.00
2023-04-20T07:06:53.828Z,23.95
2023-04-20T07:09:20.930Z,23.83
2023-04-20T07:11:47.431Z,21.45
2023-04-20T07:14:14.035Z,20.45
2023-04-20T07:16:40.587Z,21.30
2023-04-20T07:19:07.217Z,22.92
2023-04-20T07:21:33.980Z,22.10
2023-04-20T07:24:00.519Z,22.50
2023-04-20T07:26:27.030Z,23.48
2023-04-20T07:28:53.535Z,21.88
2023-04-20T07:31:20.201Z,23.05
2023-04-20T07:33:46.750Z,21.15
2023-04-20T07:36:13.246Z,22.17
2023-04-20T07:38:39.848Z,22.33
2023-04-20T07:41:10.011Z,23.10
2023-04-20T07:43:36.793Z,21.95
2023-04-20T07:46:03.446Z,20.40
2023-04-20T07:48:30.049Z,22.73
2023-04-20T07:50:56.630Z,22.27
2023-04-20T07:53:23.139Z,20.80
2023-04-20T07:55:51.027Z,22.13
2023-04-20T07:58:17.710Z,19.65
2023-04-20T08:00:46.401Z,21.88
2023-04-20T08:03:13.590Z,21.25
2023-04-20T08:05:40.990Z,19.75
2023-04-20T08:08:07.706Z,19.42
2023-04-20T08:10:35.177Z,18.88
2023-04-20T08:13:01.740Z,19.85
2023-04-20T08:15:28.323Z,18.98
2023-04-20T08:17:54.953Z,20.63
2023-04-20T08:20:21.464Z,21.35
2023-04-20T08:22:49.311Z,21.50
2023-04-20T08:25:15.931Z,18.90
2023-04-20T08:27:42.437Z,19.77
2023-04-20T08:30:09.454Z,17.95
2023-04-20T08:32:36.319Z,17.48
2023-04-20T08:35:04.212Z,17.05
2023-04-20T08:37:32.678Z,16.65
2023-04-20T08:39:59.671Z,17.50
2023-04-20T08:42:26.289Z,16.15
2023-04-20T08:44:53.027Z,15.93
2023-04-20T08:47:20.638Z,15.30
2023-04-20T08:49:48.407Z,14.25
2023-04-20T08:52:15.022Z,13.13
2023-04-20T08:54:55.267Z,13.85
2023-04-20T08:57:22.966Z,14.65
2023-04-20T08:59:49.484Z,15.57
2023-04-20T09:02:16.246Z,16.15
2023-04-20T09:04:42.914Z,15.85
2023-04-20T09:07:21.969Z,16.42
2023-04-20T09:09:56.163Z,18.95
2023-04-20T09:12:23.165Z,16.88
2023-04-20T09:14:49.690Z,16.95
2023-04-20T09:17:17.907Z,17.63
2023-04-20T09:19:45.223Z,16.83
2023-04-20T09:22:12.055Z,18.25
2023-04-20T09:24:39.860Z,19.13
2023-04-20T09:27:16.742Z,19.05
2023-04-20T09:29:43.326Z,19.40
2023-04-20T09:32:22.131Z,21.02
2023-04-20T09:34:48.786Z,21.83
2023-04-20T09:37:16.566Z,23.35
2023-04-20T09:39:46.481Z,21.98
2023-04-20T09:42:14.190Z,22.73
2023-04-20T09:44:40.674Z,22.98
2023-04-20T09:47:08.564Z,26.63
2023-04-20T09:49:35.628Z,22.38
2023-04-20T09:52:03.614Z,19.70
2023-04-20T09:54:30.594Z,21.00
2023-04-20T09:57:01.690Z,21.15
2023-04-20T10:01:55.409Z,21.08
2023-04-20T10:04:22.139Z,21.98
2023-04-20T10:06:57.908Z,21.48
2023-04-20T10:09:26.288Z,20.75
2023-04-20T10:11:55.144Z,19.52
2023-04-20T10:14:26.142Z,17.65
2023-04-20T10:17:00.111Z,17.85
2023-04-20T10:19:56.210Z,15.98
2023-04-20T10:22:32.981Z,15.27
2023-04-20T10:25:00.865Z,15.07
2023-04-20T10:27:27.682Z,16.08
2023-04-20T10:29:54.386Z,15.68
2023-04-20T10:32:28.203Z,14.43
2023-04-20T10:35:02.815Z,14.07
2023-04-20T10:37:29.679Z,13.82
2023-04-20T10:39:56.300Z,15.10
2023-04-20T10:42:22.900Z,15.25
2023-04-20T10:44:49.476Z,13.23
2023-04-20T10:47:17.013Z,14.40
2023-04-20T10:49:43.477Z,15.40
2023-04-20T10:52:10.026Z,12.93
2023-04-20T10:54:37.982Z,14.68
2023-04-20T10:57:05.324Z,13.02
2023-04-20T10:59:31.819Z,14.25
2023-04-20T11:02:01.355Z,13.88
2023-04-20T11:04:36.905Z,13.18
2023-04-20T11:07:13.027Z,13.07
2023-04-20T11:09:39.838Z,14.00
2023-04-20T11:12:12.202Z,12.90
2023-04-20T11:14:53.822Z,14.32
2023-04-20T11:17:20.745Z,13.65
2023-04-20T11:19:47.659Z,14.07
2023-04-20T11:22:21.352Z,13.73
2023-04-20T11:24:47.869Z,14.23
2023-04-20T11:27:22.132Z,13.38
2023-04-20T11:29:57.322Z,13.15
2023-04-20T11:32:24.494Z,14.40
2023-04-20T11:35:07.849Z,14.45
2023-04-20T11:37:46.776Z,14.10
2023-04-20T11:40:13.678Z,14.77
2023-04-20T11:42:40.319Z,14.23
2023-04-20T11:45:07.398Z,15.07
2023-04-20T11:47:33.938Z,15.18
2023-04-20T11:50:00.445Z,15.32
2023-04-20T11:52:27.373Z,15.02
2023-04-20T11:54:53.853Z,16.50
2023-04-20T11:57:23.661Z,14.95
2023-04-20T11:59:50.292Z,15.10
2023-04-20T12:02:16.897Z,16.02
2023-04-20T12:04:43.624Z,15.10
2023-04-20T12:07:10.767Z,14.15
2023-04-20T12:09:38.387Z,14.70
2023-04-20T12:12:05.379Z,15.27
2023-04-20T12:14:33.722Z,15.27
2023-04-20T12:17:01.436Z,16.75
2023-04-20T12:19:28.152Z,16.75
2023-04-20T12:21:55.718Z,15.50
2023-04-20T12:24:22.558Z,15.63
2023-04-20T12:26:49.157Z,15.98
2023-04-20T12:29:16.620Z,15.35
2023-04-20T12:31:43.396Z,15.55
2023-04-20T12:34:09.925Z,15.00
2023-04-20T12:36:36.722Z,14.48
2023-04-20T12:39:03.736Z,16.17
2023-04-20T12:41:30.393Z,15.45
2023-04-20T12:43:56.978Z,14.38
2023-04-20T12:46:23.520Z,14.75
2023-04-20T12:48:50.150Z,14.10
2023-04-20T12:51:16.755Z,13.60
2023-04-20T12:53:43.274Z,13.68
2023-04-20T12:56:09.837Z,15.13
2023-04-20T12:58:36.531Z,13.55
2023-04-20T13:01:03.557Z,12.68
2023-04-20T13:03:30.390Z,13.23
2023-04-20T13:05:57.043Z,13.73
2023-04-20T13:08:23.742Z,13.02
2023-04-20T13:10:50.253Z,12.52
2023-04-20T13:13:16.879Z,13.23
2023-04-20T13:15:43.457Z,13.05
2023-04-20T13:18:10.145Z,11.13
2023-04-20T13:20:36.857Z,13.77
2023-04-20T13:23:04.276Z,11.75
2023-04-20T13:25:35.173Z,12.02
2023-04-20T13:30:28.995Z,12.45
2023-04-20T13:32:55.729Z,12.18
2023-04-20T13:35:22.360Z,12.05
2023-04-20T13:37:49.001Z,12.43
2023-04-20T13:40:15.601Z,12.07
2023-04-20T13:42:42.502Z,11.88
2023-04-20T13:45:10.291Z,12.30
2023-04-20T13:47:38.171Z,11.93
2023-04-20T13:50:05.834Z,12.52
2023-04-20T13:52:32.422Z,12.35
2023-04-20T13:54:58.960Z,11.00
2023-04-20T13:57:25.619Z,13.82
2023-04-20T13:59:53.046Z,12.15
2023-04-20T14:02:19.654Z,13.23
2023-04-20T14:04:46.361Z,11.70
2023-04-20T14:07:12.930Z,15.63
2023-04-20T14:09:39.429Z,12.02
2023-04-20T14:12:05.991Z,12.48
2023-04-20T14:14:32.564Z,13.20
2023-04-20T14:16:59.062Z,11.52
2023-04-20T14:19:25.644Z,12.25
2023-04-20T14:21:52.309Z,11.82
2023-04-20T14:24:18.993Z,11.80
2023-04-20T14:26:45.806Z,11.13
2023-04-20T14:29:12.303Z,12.80
2023-04-20T14:31:38.898Z,10.05
2023-04-20T14:34:05.551Z,12.98
2023-04-20T14:36:32.514Z,10.90
2023-04-20T14:38:58.988Z,10.45
2023-04-20T14:41:25.604Z,11.50
2023-04-20T14:43:52.097Z,12.00
2023-04-20T14:46:19.048Z,10.30
2023-04-20T14:48:46.496Z,11.38
2023-04-20T14:51:13.574Z,14.32
2023-04-20T14:53:40.222Z,11.00
2023-04-20T14:56:06.795Z,13.82
2023-04-20T14:58:33.378Z,12.13
2023-04-20T15:00:59.876Z,12.77
2023-04-20T15:03:26.691Z,14.98
2023-04-20T15:05:53.693Z,10.40
2023-04-20T15:08:20.264Z,12.05
2023-04-20T15:10:46.778Z,11.88
2023-04-20T15:13:13.490Z,13.88
2023-04-20T15:15:48.161Z,10.27
2023-04-20T15:18:16.842Z,12.50
2023-04-20T15:20:43.783Z,11.27
2023-04-20T15:23:10.417Z,10.88
2023-04-20T15:25:36.905Z,8.85
2023-04-20T15:28:03.434Z,9.48
2023-04-20T15:30:30.516Z,9.23
2023-04-20T15:33:04.620Z,9.63
2023-04-20T15:35:32.371Z,9.60
2023-04-20T15:37:59.041Z,8.88
2023-04-20T15:40:27.262Z,10.35
2023-04-20T15:42:55.813Z,9.30
2023-04-20T15:45:23.061Z,8.80
2023-04-20T15:47:49.858Z,7.78
2023-04-20T15:50:16.699Z,10.00
2023-04-20T15:52:43.799Z,8.10
2023-04-20T15:55:10.986Z,9.57
2023-04-20T15:57:37.497Z,9.07
2023-04-20T16:00:04.469Z,10.20
2023-04-20T16:02:37.024Z,10.32
2023-04-20T16:05:04.301Z,9.95
2023-04-20T16:07:30.923Z,9.93
2023-04-20T16:09:57.428Z,10.20
2023-04-20T16:12:24.063Z,10.20
2023-04-20T16:14:53.195Z,7.15
2023-04-20T16:17:20.315Z,8.13
2023-04-20T16:19:46.838Z,8.52
2023-04-20T16:22:14.163Z,10.02
2023-04-20T16:24:40.740Z,8.25
2023-04-20T16:27:07.308Z,9.48
2023-04-20T16:29:33.832Z,7.80
2023-04-20T16:32:00.575Z,9.68
2023-04-20T16:34:27.175Z,8.55
2023-04-20T16:36:53.764Z,7.90
2023-04-20T16:39:20.304Z,8.70
2023-04-20T16:41:46.873Z,8.10
2023-04-20T16:44:14.441Z,9.23
2023-04-20T16:46:41.923Z,8.45
2023-04-20T16:49:09.154Z,8.60
2023-04-20T16:51:35.846Z,7.72
2023-04-20T16:54:02.374Z,7.97
2023-04-20T16:56:28.953Z,11.68
2023-04-20T16:58:55.632Z,8.13
2023-04-20T17:01:22.425Z,9.55
2023-04-20T17:03:49.249Z,8.43
2023-04-20T17:06:15.937Z,11.50
2023-04-20T17:08:42.429Z,8.07
2023-04-20T17:11:08.952Z,9.65
2023-04-20T17:13:35.471Z,8.60
2023-04-20T17:16:02.004Z,7.63
2023-04-20T17:18:28.522Z,9.85
2023-04-20T17:20:57.235Z,10.27
2023-04-20T17:23:23.819Z,8.10
2023-04-20T17:25:51.278Z,8.93
2023-04-20T17:28:17.873Z,9.63
2023-04-20T17:30:44.543Z,7.90
2023-04-20T17:33:14.443Z,8.07
2023-04-20T17:35:41.224Z,7.72
2023-04-20T17:38:07.851Z,8.63
2023-04-20T17:40:34.732Z,7.57
2023-04-20T17:43:01.900Z,10.73
2023-04-20T17:45:28.535Z,8.43
2023-04-20T17:47:55.077Z,10.27
2023-04-20T17:50:22.648Z,12.40
2023-04-20T17:52:49.133Z,12.43
2023-04-20T17:55:15.627Z,9.75
2023-04-20T17:57:42.169Z,10.55
2023-04-20T18:00:11.562Z,9.30
2023-04-20T18:02:52.506Z,8.05
2023-04-20T18:05:19.251Z,9.77
2023-04-20T18:07:45.733Z,9.05
2023-04-20T18:10:15.786Z,8.30
2023-04-20T18:12:42.844Z,8.77
2023-04-20T18:15:09.665Z,8.10
2023-04-20T18:17:36.225Z,9.00
2023-04-20T18:20:05.583Z,8.38
2023-04-20T18:22:32.753Z,8.85
2023-04-20T18:24:59.262Z,8.43
2023-04-20T18:27:26.300Z,8.15
2023-04-20T18:29:53.638Z,9.32
2023-04-20T18:32:20.916Z,15.13
2023-04-20T18:34:47.755Z,8.27
2023-04-20T18:37:15.040Z,10.18
2023-04-20T18:39:41.679Z,8.10
2023-04-20T18:42:08.201Z,8.27
2023-04-20T18:44:35.086Z,10.20
2023-04-20T18:47:01.857Z,9.32
2023-04-20T18:49:30.001Z,11.02
2023-04-20T18:51:56.574Z,10.88
2023-04-20T18:54:23.175Z,9.90
2023-04-20T18:56:50.397Z,11.20
2023-04-20T18:59:16.994Z,11.32
2023-04-20T19:01:43.612Z,11.23
2023-04-20T19:04:10.403Z,9.38
2023-04-20T19:06:36.975Z,9.57
2023-04-20T19:09:04.174Z,9.68
2023-04-20T19:11:32.050Z,11.95
2023-04-20T19:13:58.570Z,10.50
2023-04-20T19:16:25.119Z,9.73
2023-04-20T19:18:51.987Z,11.98
2023-04-20T19:21:20.268Z,9.63
2023-04-20T19:23:48.133Z,15.43
2023-04-20T19:26:15.650Z,13.13
2023-04-20T19:28:42.202Z,13.25
2023-04-20T19:31:10.921Z,10.98
2023-04-20T19:33:38.038Z,11.55
2023-04-20T19:36:06.283Z,12.23
2023-04-20T19:38:34.601Z,12.43
2023-04-20T19:41:01.411Z,9.40
2023-04-20T19:43:28.110Z,9.77
2023-04-20T19:45:58.128Z,10.25
2023-04-20T19:48:25.552Z,12.57
2023-04-20T19:50:52.126Z,11.23
2023-04-20T19:53:19.253Z,12.93
2023-04-20T19:55:45.853Z,11.77
2023-04-20T19:58:13.365Z,9.15
2023-04-20T20:00:40.159Z,11.80
2023-04-20T20:03:10.372Z,10.82
2023-04-20T20:05:36.993Z,11.13
2023-04-20T20:08:04.362Z,9.80
2023-04-20T20:10:30.879Z,10.77
2023-04-20T20:12:57.394Z,10.02
2023-04-20T20:15:23.952Z,16.25
2023-04-20T20:17:50.940Z,12.18
2023-04-20T20:20:17.482Z,12.98
2023-04-20T20:22:48.210Z,9.40
2023-04-20T20:25:16.152Z,10.70
2023-04-20T20:27:42.649Z,11.18
2023-04-20T20:30:09.813Z,10.50
2023-04-20T20:32:36.308Z,13.13
2023-04-20T20:35:04.642Z,12.15
2023-04-20T20:37:34.613Z,9.60
2023-04-20T20:40:07.033Z,11.77
2023-04-20T20:42:34.063Z,8.57
2023-04-20T20:45:01.073Z,9.88
2023-04-20T20:47:27.651Z,11.55
2023-04-20T20:49:54.178Z,10.55
2023-04-20T20:52:21.171Z,10.15
2023-04-20T20:54:48.266Z,9.57
2023-04-20T20:57:14.932Z,10.38
2023-04-20T20:59:41.467Z,11.13
2023-04-20T21:02:08.144Z,12.27
2023-04-20T21:04:34.750Z,9.50
2023-04-20T21:07:01.277Z,11.70
2023-04-20T21:09:27.793Z,12.60
2023-04-20T21:11:56.614Z,10.35
2023-04-20T21:14:23.235Z,12.15
2023-04-20T21:16:49.881Z,10.85
2023-04-20T21:19:16.611Z,10.30
2023-04-20T21:21:43.461Z,9.82
2023-04-20T21:24:09.920Z,9.52
2023-04-20T21:26:36.419Z,11.40
2023-04-20T21:29:03.623Z,9.77
2023-04-20T21:31:30.870Z,10.65
2023-04-20T21:33:57.908Z,10.18
2023-04-20T21:36:24.403Z,10.48
2023-04-20T21:38:50.952Z,8.07
2023-04-20T21:41:17.475Z,13.27
2023-04-20T21:43:44.007Z,9.18
2023-04-20T21:46:14.417Z,12.65
2023-04-20T21:48:41.302Z,11.07
2023-04-20T21:51:07.845Z,10.38
2023-04-20T21:53:34.421Z,12.98
2023-04-20T21:56:00.945Z,13.55
2023-04-20T21:58:27.432Z,9.60
2023-04-20T22:00:53.999Z,14.70
2023-04-20T22:03:20.706Z,13.23
2023-04-20T22:05:47.438Z,11.35
2023-04-20T22:08:15.241Z,14.70
2023-04-20T22:10:42.093Z,12.52
2023-04-20T22:13:08.575Z,10.73
2023-04-20T22:15:35.080Z,9.32
2023-04-20T22:18:03.973Z,11.48
2023-04-20T22:20:31.528Z,11.88
2023-04-20T22:23:00.973Z,15.65
2023-04-20T22:25:27.451Z,12.95
2023-04-20T22:27:53.917Z,17.23
2023-04-20T22:30:20.692Z,11.65
2023-04-20T22:32:47.457Z,14.77
2023-04-20T22:35:14.046Z,13.60
2023-04-20T22:37:40.910Z,12.88
2023-04-20T22:40:08.238Z,10.77
2023-04-20T22:42:36.108Z,12.98
2023-04-20T22:45:03.665Z,17.60
2023-04-20T22:47:30.296Z,14.25
2023-04-20T22:49:56.999Z,14.63
2023-04-20T22:52:23.528Z,18.52
2023-04-20T22:54:50.016Z,14.25
2023-04-20T22:57:18.134Z,14.95
2023-04-20T22:59:44.745Z,13.82
2023-04-20T23:02:11.320Z,14.55
2023-04-20T23:04:37.967Z,15.93
2023-04-20T23:07:08.027Z,16.73
2023-04-20T23:09:37.982Z,19.08
2023-04-20T23:12:04.700Z,14.25
2023-04-20T23:14:32.044Z,14.52
2023-04-20T23:17:00.002Z,21.63
2023-04-20T23:19:26.537Z,17.42
2023-04-20T23:21:53.031Z,13.65
2023-04-20T23:24:19.528Z,14.88
2023-04-20T23:26:46.057Z,13.63
2023-04-20T23:29:12.596Z,15.07
2023-04-20T23:31:39.204Z,12.98
2023-04-20T23:34:06.033Z,16.27
2023-04-20T23:36:32.888Z,12.88
2023-04-20T23:38:59.365Z,19.55
2023-04-20T23:41:25.977Z,13.00
2023-04-20T23:43:52.465Z,13.60
2023-04-20T23:46:19.163Z,11.60
2023-04-20T23:48:45.760Z,16.38
2023-04-20T23:51:12.277Z,14.13
2023-04-20T23:53:39.329Z,17.75
2023-04-20T23:56:06.495Z,17.10
2023-04-20T23:58:32.972Z,18.95
